createdAt,value
2018-01-18T00:01:50.720Z,90.80
2018-01-18T00:04:18.173Z,90.90
2018-01-18T00:06:45.604Z,91.20
2018-01-18T00:09:13.071Z,91.50
2018-01-18T00:11:40.508Z,91.80
2018-01-18T00:14:08.128Z,91.90
2018-01-18T00:16:35.582Z,92.10
2018-01-18T00:19:03.044Z,92.20
2018-01-18T00:21:30.484Z,92.30
2018-01-18T00:23:57.938Z,92.40
2018-01-18T00:26:25.384Z,92.40
2018-01-18T00:28:52.831Z,92.70
2018-01-18T00:31:20.276Z,93.10
2018-01-18T00:33:48.518Z,93.70
2018-01-18T00:36:15.961Z,93.60
2018-01-18T00:38:43.421Z,93.80
2018-01-18T00:41:10.866Z,94.00
2018-01-18T00:43:38.309Z,94.20
2018-01-18T00:46:05.764Z,94.10
2018-01-18T00:48:33.193Z,94.00
2018-01-18T00:51:00.649Z,94.10
2018-01-18T00:53:28.104Z,94.10
2018-01-18T00:55:55.537Z,94.20
2018-01-18T00:58:22.981Z,94.20
2018-01-18T01:00:50.421Z,94.30
2018-01-18T01:03:17.885Z,94.30
2018-01-18T01:05:45.330Z,94.20
2018-01-18T01:08:12.777Z,94.00
2018-01-18T01:10:40.232Z,93.90
2018-01-18T01:13:07.666Z,93.90
2018-01-18T01:15:35.134Z,94.00
2018-01-18T01:18:02.565Z,94.20
2018-01-18T01:20:30.006Z,94.10
2018-01-18T01:22:57.452Z,94.10
2018-01-18T01:25:24.892Z,94.10
2018-01-18T01:27:52.350Z,94.20
2018-01-18T01:30:19.791Z,94.20
2018-01-18T01:32:47.233Z,94.30
2018-01-18T01:35:14.684Z,94.20
2018-01-18T01:37:42.127Z,94.30
2018-01-18T01:40:12.745Z,94.40
2018-01-18T01:42:40.300Z,94.30
2018-01-18T01:45:07.764Z,94.40
2018-01-18T01:47:35.216Z,94.30
2018-01-18T01:50:02.662Z,94.30
2018-01-18T01:52:30.117Z,94.30
2018-01-18T01:54:57.557Z,94.50
2018-01-18T01:57:25.006Z,94.70
2018-01-18T01:59:52.476Z,95.20
2018-01-18T02:02:19.922Z,95.60
2018-01-18T02:04:47.394Z,95.90
2018-01-18T02:07:14.860Z,96.20
2018-01-18T02:09:42.310Z,96.50
2018-01-18T02:12:09.785Z,96.60
2018-01-18T02:14:37.227Z,96.60
2018-01-18T02:17:04.704Z,96.70
2018-01-18T02:19:32.145Z,96.90
2018-01-18T02:21:59.606Z,96.90
2018-01-18T02:24:27.074Z,97.00
2018-01-18T02:26:54.508Z,97.10
2018-01-18T02:31:54.589Z,97.20
2018-01-18T02:34:22.062Z,97.10
2018-01-18T02:36:49.512Z,97.00
2018-01-18T02:39:16.960Z,97.00
2018-01-18T02:41:44.565Z,96.90
2018-01-18T02:44:12.016Z,96.80
2018-01-18T02:46:39.463Z,96.80
2018-01-18T02:49:06.930Z,96.70
2018-01-18T02:51:34.383Z,96.40
2018-01-18T02:54:01.860Z,96.40
2018-01-18T02:56:29.304Z,96.20
2018-01-18T02:58:56.736Z,96.20
2018-01-18T03:01:24.201Z,96.10
2018-01-18T03:03:51.653Z,96.10
2018-01-18T03:06:19.127Z,96.00
2018-01-18T03:08:46.579Z,96.10
2018-01-18T03:11:14.024Z,96.20
2018-01-18T03:13:41.491Z,96.30
2018-01-18T03:16:08.940Z,96.50
2018-01-18T03:18:36.406Z,96.60
2018-01-18T03:21:03.858Z,97.00
2018-01-18T03:23:31.305Z,97.40
2018-01-18T03:25:58.786Z,97.70
2018-01-18T03:28:26.229Z,97.80
2018-01-18T03:30:54.457Z,98.30
2018-01-18T03:33:21.919Z,98.30
2018-01-18T03:35:49.636Z,98.80
2018-01-18T03:38:17.118Z,99.30
2018-01-18T03:40:44.549Z,99.60
2018-01-18T03:43:12.001Z,99.90
2018-01-18T03:45:39.436Z,99.90
2018-01-18T03:48:06.890Z,99.90
2018-01-18T03:50:34.367Z,99.90
2018-01-18T03:53:01.800Z,99.90
2018-01-18T03:55:29.257Z,99.90
2018-01-18T03:57:56.701Z,99.90
2018-01-18T04:00:24.165Z,99.90
2018-01-18T04:02:51.628Z,99.90
2018-01-18T04:05:19.848Z,99.90
2018-01-18T04:07:47.300Z,99.90
2018-01-18T04:10:14.753Z,99.90
2018-01-18T04:12:42.197Z,99.90
2018-01-18T04:15:09.672Z,99.90
2018-01-18T04:17:37.126Z,99.90
2018-01-18T04:20:04.593Z,99.90
2018-01-18T04:22:32.051Z,99.90
2018-01-18T04:24:59.485Z,99.90
2018-01-18T04:27:26.930Z,99.90
2018-01-18T04:29:54.366Z,99.90
2018-01-18T04:32:21.822Z,99.90
2018-01-18T04:34:49.269Z,99.90
2018-01-18T04:37:16.731Z,99.90
2018-01-18T04:39:44.202Z,99.90
2018-01-18T04:42:11.650Z,99.90
2018-01-18T04:44:39.126Z,99.90
2018-01-18T04:47:06.566Z,99.90
2018-01-18T04:49:34.029Z,99.90
2018-01-18T04:52:01.484Z,99.90
2018-01-18T04:54:33.331Z,99.90
2018-01-18T04:57:00.793Z,99.90
2018-01-18T04:59:28.347Z,99.90
2018-01-18T05:01:55.808Z,99.90
2018-01-18T05:04:23.300Z,99.90
2018-01-18T05:06:50.721Z,99.90
2018-01-18T05:09:19.104Z,99.90
2018-01-18T05:11:46.603Z,99.90
2018-01-18T05:14:14.048Z,99.90
2018-01-18T05:16:41.502Z,99.90
2018-01-18T05:19:08.933Z,99.90
2018-01-18T05:21:36.402Z,99.90
2018-01-18T05:24:03.856Z,99.90
2018-01-18T05:26:31.304Z,99.90
2018-01-18T05:28:58.732Z,99.90
2018-01-18T05:31:26.224Z,99.90
2018-01-18T05:33:53.881Z,99.90
2018-01-18T05:36:21.317Z,99.90
2018-01-18T05:38:49.035Z,99.90
2018-01-18T05:41:16.473Z,99.90
2018-01-18T05:43:43.916Z,99.90
2018-01-18T05:46:11.373Z,99.90
2018-01-18T05:48:38.817Z,99.90
2018-01-18T05:51:06.275Z,99.90
2018-01-18T05:53:33.719Z,99.90
2018-01-18T05:56:01.160Z,99.90
2018-01-18T05:58:28.617Z,99.90
2018-01-18T06:00:56.070Z,99.90
2018-01-18T06:03:23.529Z,99.90
2018-01-18T06:05:50.971Z,99.90
2018-01-18T06:08:18.396Z,99.90
2018-01-18T06:10:45.844Z,99.90
2018-01-18T06:13:14.812Z,99.90
2018-01-18T06:15:42.271Z,99.90
2018-01-18T06:18:09.716Z,99.90
2018-01-18T06:20:37.152Z,99.90
2018-01-18T06:23:04.624Z,99.90
2018-01-18T06:25:32.074Z,99.90
2018-01-18T06:27:59.524Z,99.90
2018-01-18T06:30:26.967Z,99.90
2018-01-18T06:32:54.420Z,99.90
2018-01-18T06:35:21.861Z,99.90
2018-01-18T06:37:49.300Z,99.90
2018-01-18T06:40:16.757Z,99.90
2018-01-18T06:42:44.454Z,99.90
2018-01-18T06:45:11.912Z,99.90
2018-01-18T06:47:39.381Z,99.90
2018-01-18T06:50:06.819Z,99.90
2018-01-18T06:52:34.291Z,99.90
2018-01-18T06:55:01.720Z,99.80
2018-01-18T06:57:29.174Z,99.60
2018-01-18T06:59:56.665Z,99.40
2018-01-18T07:02:24.066Z,99.10
2018-01-18T07:04:51.528Z,99.30
2018-01-18T07:07:18.963Z,99.50
2018-01-18T07:09:46.400Z,99.50
2018-01-18T07:12:13.847Z,99.40
2018-01-18T07:14:41.292Z,98.90
2018-01-18T07:17:08.911Z,98.90
2018-01-18T07:19:36.366Z,98.70
2018-01-18T07:22:03.845Z,99.00
2018-01-18T07:24:33.560Z,98.80
2018-01-18T07:27:01.005Z,98.70
2018-01-18T07:29:29.226Z,98.50
2018-01-18T07:31:56.684Z,98.40
2018-01-18T07:34:24.141Z,98.50
2018-01-18T07:36:51.588Z,98.60
2018-01-18T07:39:19.043Z,98.60
2018-01-18T07:41:46.811Z,98.40
2018-01-18T07:44:14.234Z,98.40
2018-01-18T07:46:41.688Z,98.50
2018-01-18T07:49:09.161Z,98.40
2018-01-18T07:51:36.621Z,98.40
2018-01-18T07:54:04.087Z,98.50
2018-01-18T07:56:31.547Z,98.40
2018-01-18T07:58:59.000Z,98.60
2018-01-18T08:01:26.424Z,98.70
2018-01-18T08:04:00.321Z,98.90
2018-01-18T08:06:29.284Z,98.90
2018-01-18T08:08:56.721Z,98.90
2018-01-18T08:11:24.206Z,98.90
2018-01-18T08:13:51.664Z,99.00
2018-01-18T08:16:19.133Z,99.00
2018-01-18T08:18:46.577Z,99.10
2018-01-18T08:21:14.024Z,98.80
2018-01-18T08:23:41.488Z,99.00
2018-01-18T08:26:08.933Z,99.10
2018-01-18T08:28:36.398Z,98.90
2018-01-18T08:31:03.846Z,98.90
2018-01-18T08:33:31.301Z,98.80
2018-01-18T08:35:58.748Z,98.90
2018-01-18T08:38:26.205Z,98.80
2018-01-18T08:40:53.683Z,98.70
2018-01-18T08:43:21.145Z,98.80
2018-01-18T08:45:48.579Z,98.90
2018-01-18T08:48:16.068Z,98.90
2018-01-18T08:50:43.507Z,98.70
2018-01-18T08:53:10.946Z,98.50
2018-01-18T08:55:38.417Z,98.20
2018-01-18T08:58:05.854Z,98.00
2018-01-18T09:00:33.314Z,98.00
2018-01-18T09:03:00.754Z,98.50
2018-01-18T09:05:28.949Z,98.20
2018-01-18T09:07:56.405Z,98.20
2018-01-18T09:10:23.854Z,98.10
2018-01-18T09:12:51.300Z,98.20
2018-01-18T09:15:18.748Z,97.80
2018-01-18T09:17:46.192Z,98.40
2018-01-18T09:20:13.655Z,99.20
2018-01-18T09:22:41.106Z,99.30
2018-01-18T09:25:08.552Z,99.40
2018-01-18T09:27:36.000Z,99.70
2018-01-18T09:30:03.429Z,99.50
2018-01-18T09:32:30.905Z,99.00
2018-01-18T09:34:58.353Z,98.10
2018-01-18T09:37:25.819Z,96.30
2018-01-18T09:39:53.269Z,96.00
2018-01-18T09:42:20.720Z,95.60
2018-01-18T09:44:48.182Z,95.70
2018-01-18T09:47:15.617Z,95.40
2018-01-18T09:49:43.064Z,94.50
2018-01-18T09:52:10.627Z,94.40
2018-01-18T09:54:38.614Z,93.50
2018-01-18T09:57:06.082Z,92.00
2018-01-18T09:59:33.547Z,88.60
2018-01-18T10:02:01.013Z,86.20
2018-01-18T10:04:28.482Z,83.50
2018-01-18T10:06:56.654Z,83.00
2018-01-18T10:09:24.617Z,83.80
2018-01-18T10:11:52.065Z,81.20
2018-01-18T10:14:21.628Z,81.80
2018-01-18T10:16:49.076Z,80.70
2018-01-18T10:19:16.517Z,81.00
2018-01-18T10:21:43.981Z,82.00
2018-01-18T10:24:11.434Z,83.50
2018-01-18T10:26:38.885Z,84.80
2018-01-18T10:29:06.355Z,86.50
2018-01-18T10:31:33.813Z,87.50
2018-01-18T10:34:01.520Z,90.60
2018-01-18T10:36:28.953Z,91.40
2018-01-18T10:38:56.458Z,92.30
2018-01-18T10:41:23.918Z,92.50
2018-01-18T10:43:51.362Z,92.00
2018-01-18T10:46:19.201Z,91.30
2018-01-18T10:48:46.659Z,91.10
2018-01-18T10:51:14.104Z,89.60
2018-01-18T10:53:41.553Z,87.20
2018-01-18T10:56:09.009Z,83.30
2018-01-18T10:58:36.471Z,80.60
2018-01-18T11:01:03.967Z,79.90
2018-01-18T11:03:31.407Z,80.00
2018-01-18T11:05:58.852Z,79.60
2018-01-18T11:08:26.291Z,80.40
2018-01-18T11:10:53.759Z,79.80
2018-01-18T11:13:21.198Z,83.80
2018-01-18T11:15:48.647Z,91.60
2018-01-18T11:18:16.098Z,94.40
2018-01-18T11:20:43.536Z,98.10
2018-01-18T11:23:11.002Z,99.90
2018-01-18T11:25:38.441Z,99.90
2018-01-18T11:28:07.835Z,99.90
2018-01-18T11:30:36.050Z,99.90
2018-01-18T11:33:03.772Z,99.90
2018-01-18T11:35:31.510Z,99.90
2018-01-18T11:37:58.959Z,99.90
2018-01-18T11:40:26.405Z,99.90
2018-01-18T11:42:53.849Z,99.90
2018-01-18T11:45:21.318Z,99.90
2018-01-18T11:47:48.761Z,99.90
2018-01-18T11:50:16.207Z,99.90
2018-01-18T11:52:43.650Z,99.90
2018-01-18T11:55:11.541Z,99.90
2018-01-18T11:57:38.965Z,99.90
2018-01-18T12:00:06.441Z,98.70
2018-01-18T12:02:33.877Z,94.80
2018-01-18T12:05:01.304Z,91.60
2018-01-18T12:07:28.778Z,80.50
2018-01-18T12:09:56.215Z,76.00
2018-01-18T12:12:23.659Z,71.20
2018-01-18T12:14:51.208Z,69.90
2018-01-18T12:17:18.672Z,68.40
2018-01-18T12:19:46.147Z,62.10
2018-01-18T12:22:13.595Z,62.30
2018-01-18T12:24:41.040Z,62.70
2018-01-18T12:27:08.486Z,58.30
2018-01-18T12:29:35.949Z,56.80
2018-01-18T12:32:03.554Z,55.30
2018-01-18T12:34:31.016Z,53.60
2018-01-18T12:37:05.740Z,52.40
2018-01-18T12:39:33.195Z,52.40
2018-01-18T12:42:00.809Z,50.70
2018-01-18T12:44:29.423Z,49.30
2018-01-18T12:46:56.871Z,48.50
2018-01-18T12:49:27.326Z,49.20
2018-01-18T12:51:54.745Z,50.20
2018-01-18T12:54:22.393Z,50.60
2018-01-18T12:56:49.855Z,49.50
2018-01-18T12:59:18.211Z,47.30
2018-01-18T13:01:45.681Z,47.20
2018-01-18T13:04:13.122Z,47.20
2018-01-18T13:06:40.701Z,45.90
2018-01-18T13:09:08.153Z,46.60
2018-01-18T13:11:35.613Z,48.00
2018-01-18T13:14:03.081Z,47.30
2018-01-18T13:16:30.512Z,46.90
2018-01-18T13:18:57.970Z,47.60
2018-01-18T13:21:25.433Z,47.60
2018-01-18T13:23:53.009Z,46.40
2018-01-18T13:26:20.459Z,46.60
2018-01-18T13:28:48.016Z,45.40
2018-01-18T13:31:15.479Z,45.70
2018-01-18T13:33:42.932Z,46.10
2018-01-18T13:36:10.387Z,47.10
2018-01-18T13:38:38.102Z,48.50
2018-01-18T13:41:05.850Z,48.70
2018-01-18T13:43:33.289Z,50.30
2018-01-18T13:46:00.800Z,50.20
2018-01-18T13:48:28.248Z,49.60
2018-01-18T13:50:55.710Z,50.20
2018-01-18T13:53:23.168Z,51.20
2018-01-18T13:55:50.623Z,50.60
2018-01-18T13:58:18.072Z,51.60
2018-01-18T14:00:45.518Z,50.90
2018-01-18T14:03:12.976Z,51.20
2018-01-18T14:05:40.439Z,51.00
2018-01-18T14:08:07.889Z,51.10
2018-01-18T14:10:36.096Z,51.00
2018-01-18T14:13:03.540Z,50.90
2018-01-18T14:15:30.981Z,50.20
2018-01-18T14:17:58.725Z,50.40
2018-01-18T14:20:26.184Z,50.00
2018-01-18T14:22:53.654Z,50.30
2018-01-18T14:25:21.102Z,50.80
2018-01-18T14:27:48.560Z,49.80
2018-01-18T14:30:16.024Z,50.40
2018-01-18T14:32:43.686Z,50.00
2018-01-18T14:35:11.140Z,50.10
2018-01-18T14:37:38.588Z,49.40
2018-01-18T14:40:06.067Z,48.90
2018-01-18T14:42:33.547Z,47.60
2018-01-18T14:45:00.977Z,47.50
2018-01-18T14:47:28.432Z,48.00
2018-01-18T14:49:55.876Z,49.30
2018-01-18T14:52:23.344Z,52.40
2018-01-18T14:54:50.801Z,54.00
2018-01-18T14:57:18.258Z,54.40
2018-01-18T14:59:45.703Z,54.40
2018-01-18T15:02:13.137Z,54.90
2018-01-18T15:04:40.586Z,54.80
2018-01-18T15:07:08.049Z,54.20
2018-01-18T15:09:35.508Z,54.20
2018-01-18T15:12:02.968Z,54.60
2018-01-18T15:14:30.437Z,55.40
2018-01-18T15:16:57.901Z,56.00
2018-01-18T15:19:26.269Z,56.30
2018-01-18T15:21:53.715Z,56.20
2018-01-18T15:24:21.156Z,56.60
2018-01-18T15:26:48.614Z,57.10
2018-01-18T15:29:16.044Z,57.20
2018-01-18T15:31:43.505Z,57.50
2018-01-18T15:34:10.962Z,57.50
2018-01-18T15:36:38.470Z,56.80
2018-01-18T15:39:05.870Z,57.40
2018-01-18T15:41:33.309Z,57.70
2018-01-18T15:44:00.765Z,57.70
2018-01-18T15:46:28.204Z,57.50
2018-01-18T15:48:56.657Z,57.90
2018-01-18T15:51:24.109Z,58.30
2018-01-18T15:53:51.565Z,58.10
2018-01-18T15:56:19.015Z,58.10
2018-01-18T15:58:46.472Z,58.50
2018-01-18T16:01:13.920Z,58.60
2018-01-18T16:03:41.379Z,57.70
2018-01-18T16:06:08.809Z,57.60
2018-01-18T16:08:36.261Z,57.90
2018-01-18T16:11:04.477Z,58.20
2018-01-18T16:13:31.928Z,58.20
2018-01-18T16:15:59.355Z,58.20
2018-01-18T16:18:26.807Z,58.40
2018-01-18T16:20:54.264Z,58.60
2018-01-18T16:23:21.711Z,58.40
2018-01-18T16:25:49.164Z,58.50
2018-01-18T16:28:16.613Z,58.40
2018-01-18T16:30:44.045Z,58.60
2018-01-18T16:33:11.505Z,58.70
2018-01-18T16:35:38.948Z,58.60
2018-01-18T16:38:06.388Z,58.80
2018-01-18T16:40:33.832Z,58.90
2018-01-18T16:43:01.284Z,59.00
2018-01-18T16:45:28.733Z,59.20
2018-01-18T16:47:56.174Z,59.40
2018-01-18T16:50:23.628Z,60.00
2018-01-18T16:52:51.059Z,60.20
2018-01-18T16:55:18.499Z,61.00
2018-01-18T16:57:45.960Z,61.90
2018-01-18T17:00:13.418Z,62.40
2018-01-18T17:02:40.901Z,63.00
2018-01-18T17:05:08.366Z,63.50
2018-01-18T17:07:35.809Z,63.70
2018-01-18T17:10:04.755Z,64.40
2018-01-18T17:12:32.196Z,64.40
2018-01-18T17:14:59.671Z,64.50
2018-01-18T17:17:27.126Z,64.80
2018-01-18T17:19:54.565Z,65.20
2018-01-18T17:22:22.032Z,65.60
2018-01-18T17:24:49.460Z,65.90
2018-01-18T17:27:17.066Z,66.30
2018-01-18T17:29:44.497Z,66.60
2018-01-18T17:32:11.964Z,66.90
2018-01-18T17:34:39.432Z,67.10
2018-01-18T17:37:07.692Z,67.30
2018-01-18T17:39:35.160Z,67.80
2018-01-18T17:42:02.619Z,68.00
2018-01-18T17:44:30.064Z,68.20
2018-01-18T17:46:57.525Z,68.50
2018-01-18T17:49:27.845Z,68.70
2018-01-18T17:51:55.312Z,68.70
2018-01-18T17:54:22.767Z,69.10
2018-01-18T17:56:50.268Z,69.30
2018-01-18T17:59:17.745Z,69.80
2018-01-18T18:01:45.181Z,70.20
2018-01-18T18:04:12.782Z,70.60
2018-01-18T18:06:40.230Z,71.00
2018-01-18T18:09:07.665Z,71.30
2018-01-18T18:11:35.140Z,71.50
2018-01-18T18:14:02.612Z,71.80
2018-01-18T18:16:30.086Z,72.10
2018-01-18T18:18:57.517Z,72.10
2018-01-18T18:21:24.972Z,72.30
2018-01-18T18:23:52.457Z,72.30
2018-01-18T18:26:20.102Z,72.60
2018-01-18T18:28:47.552Z,72.90
2018-01-18T18:31:15.018Z,73.20
2018-01-18T18:33:42.482Z,73.50
2018-01-18T18:36:09.960Z,73.90
2018-01-18T18:38:37.398Z,74.50
2018-01-18T18:41:05.000Z,75.10
2018-01-18T18:43:32.454Z,75.80
2018-01-18T18:45:59.914Z,76.50
2018-01-18T18:48:27.368Z,77.00
2018-01-18T18:53:18.576Z,77.80
2018-01-18T18:55:46.028Z,78.40
2018-01-18T18:58:13.474Z,78.80
2018-01-18T19:00:40.946Z,79.10
2018-01-18T19:03:08.377Z,79.30
2018-01-18T19:05:36.602Z,79.50
2018-01-18T19:08:04.047Z,79.50
2018-01-18T19:10:31.843Z,79.60
2018-01-18T19:12:59.286Z,80.00
2018-01-18T19:15:26.997Z,80.50
2018-01-18T19:17:54.464Z,80.70
2018-01-18T19:20:21.927Z,81.20
2018-01-18T19:22:49.463Z,81.90
2018-01-18T19:25:16.924Z,82.20
2018-01-18T19:27:44.360Z,82.50
2018-01-18T19:30:11.844Z,82.70
2018-01-18T19:32:39.306Z,82.90
2018-01-18T19:35:06.989Z,83.20
2018-01-18T19:37:34.420Z,83.50
2018-01-18T19:40:01.876Z,83.60
2018-01-18T19:42:29.331Z,83.70
2018-01-18T19:44:56.792Z,83.90
2018-01-18T19:47:24.351Z,84.10
2018-01-18T19:49:51.818Z,84.30
2018-01-18T19:52:19.264Z,84.10
2018-01-18T19:54:46.739Z,84.20
2018-01-18T19:57:14.236Z,84.20
2018-01-18T19:59:41.697Z,84.40
2018-01-18T20:02:09.159Z,84.50
2018-01-18T20:04:36.601Z,84.40
2018-01-18T20:07:06.543Z,84.40
2018-01-18T20:09:33.977Z,84.60
2018-01-18T20:12:01.417Z,84.50
2018-01-18T20:14:31.551Z,85.20
2018-01-18T20:16:59.015Z,84.00
2018-01-18T20:19:28.153Z,83.70
2018-01-18T20:21:55.657Z,83.60
2018-01-18T20:24:23.121Z,83.60
2018-01-18T20:26:50.600Z,83.50
2018-01-18T20:29:18.037Z,83.40
2018-01-18T20:31:45.651Z,83.20
2018-01-18T20:34:13.108Z,83.30
2018-01-18T20:36:40.594Z,83.30
2018-01-18T20:39:08.046Z,83.40
2018-01-18T20:41:35.488Z,83.50
2018-01-18T20:44:02.982Z,83.80
2018-01-18T20:46:30.440Z,83.80
2018-01-18T20:48:57.910Z,83.80
2018-01-18T20:51:25.356Z,83.20
2018-01-18T20:53:52.958Z,82.80
2018-01-18T20:56:21.205Z,81.90
2018-01-18T20:58:48.625Z,81.80
2018-01-18T21:01:16.070Z,81.10
2018-01-18T21:03:43.533Z,80.60
2018-01-18T21:06:11.150Z,80.30
2018-01-18T21:08:38.608Z,80.40
2018-01-18T21:11:06.073Z,80.90
2018-01-18T21:13:33.517Z,79.90
2018-01-18T21:16:00.988Z,79.60
2018-01-18T21:18:28.442Z,79.00
2018-01-18T21:20:55.900Z,79.60
2018-01-18T21:23:23.352Z,78.50
2018-01-18T21:25:50.815Z,78.70
2018-01-18T21:28:18.273Z,78.90
2018-01-18T21:30:45.725Z,79.40
2018-01-18T21:33:13.218Z,80.30
2018-01-18T21:35:40.677Z,80.70
2018-01-18T21:38:08.116Z,81.70
2018-01-18T21:40:35.565Z,82.70
2018-01-18T21:43:03.032Z,84.80
2018-01-18T21:45:30.494Z,86.80
2018-01-18T21:47:57.949Z,88.50
2018-01-18T21:50:25.400Z,89.60
2018-01-18T21:52:52.862Z,90.10
2018-01-18T21:55:20.364Z,90.70
2018-01-18T21:57:47.805Z,91.10
2018-01-18T22:00:15.260Z,91.30
2018-01-18T22:02:42.722Z,91.60
2018-01-18T22:05:10.303Z,91.60
2018-01-18T22:07:38.070Z,91.60
2018-01-18T22:10:05.519Z,91.90
2018-01-18T22:12:32.969Z,92.20
2018-01-18T22:15:00.439Z,92.60
2018-01-18T22:17:27.905Z,92.50
2018-01-18T22:19:55.369Z,92.70
2018-01-18T22:22:22.806Z,92.70
2018-01-18T22:24:50.295Z,92.70
2018-01-18T22:27:17.792Z,92.70
2018-01-18T22:29:45.240Z,92.70
2018-01-18T22:32:12.684Z,92.70
2018-01-18T22:34:40.143Z,92.70
2018-01-18T22:37:07.616Z,92.90
2018-01-18T22:39:35.065Z,92.90
2018-01-18T22:42:02.621Z,93.10
2018-01-18T22:44:30.899Z,93.40
2018-01-18T22:46:58.350Z,93.80
2018-01-18T22:49:27.088Z,94.00
2018-01-18T22:51:54.511Z,94.50
2018-01-18T22:54:21.972Z,94.80
2018-01-18T22:56:49.407Z,95.50
2018-01-18T22:59:16.861Z,95.70
2018-01-18T23:01:44.341Z,96.00
2018-01-18T23:04:11.783Z,96.60
2018-01-18T23:06:39.235Z,96.80
2018-01-18T23:09:06.690Z,97.00
2018-01-18T23:11:34.355Z,97.30
2018-01-18T23:14:01.826Z,97.40
2018-01-18T23:16:29.272Z,97.80
2018-01-18T23:18:56.739Z,98.00
2018-01-18T23:21:24.196Z,98.20
2018-01-18T23:23:51.657Z,98.40
2018-01-18T23:26:19.485Z,98.50
2018-01-18T23:28:46.927Z,98.50
2018-01-18T23:31:14.394Z,98.50
2018-01-18T23:33:41.847Z,98.60
2018-01-18T23:36:09.289Z,99.00
2018-01-18T23:38:37.517Z,99.30
2018-01-18T23:41:04.968Z,99.30
2018-01-18T23:43:32.433Z,99.30
2018-01-18T23:45:59.868Z,99.30
2018-01-18T23:48:27.318Z,99.40
2018-01-18T23:50:55.550Z,99.60
2018-01-18T23:53:23.151Z,99.60
2018-01-18T23:55:50.619Z,99.80
2018-01-18T23:58:18.062Z,99.80
